createdAt,value
2018-07-11T00:01:16.798Z,1.80
2018-07-11T00:03:47.630Z,1.90
2018-07-11T00:06:16.583Z,2.90
2018-07-11T00:08:44.443Z,10.97
2018-07-11T00:11:12.762Z,1.63
2018-07-11T00:13:42.144Z,4.43
2018-07-11T00:16:09.991Z,2.30
2018-07-11T00:18:37.835Z,3.10
2018-07-11T00:21:05.851Z,3.10
2018-07-11T00:23:33.771Z,3.17
2018-07-11T00:26:01.791Z,1.33
2018-07-11T00:28:29.740Z,1.47
2018-07-11T00:30:58.289Z,1.80
2018-07-11T00:33:25.995Z,2.47
2018-07-11T00:35:53.942Z,2.80
2018-07-11T00:38:22.480Z,2.17
2018-07-11T00:40:50.787Z,1.20
2018-07-11T00:43:18.755Z,4.90
2018-07-11T00:45:47.431Z,2.60
2018-07-11T00:48:15.542Z,1.90
2018-07-11T00:50:43.455Z,1.70
2018-07-11T00:53:12.120Z,1.90
2018-07-11T00:55:40.043Z,2.40
2018-07-11T00:58:17.083Z,4.17
2018-07-11T01:00:55.197Z,1.83
2018-07-11T01:03:23.178Z,1.40
2018-07-11T01:05:51.161Z,1.63
2018-07-11T01:08:19.679Z,2.50
2018-07-11T01:10:47.617Z,2.20
2018-07-11T01:13:16.232Z,3.40
2018-07-11T01:15:44.241Z,1.70
2018-07-11T01:18:13.375Z,2.00
2018-07-11T01:20:42.835Z,3.60
2018-07-11T01:23:11.124Z,1.70
2018-07-11T01:25:38.947Z,1.90
2018-07-11T01:28:07.230Z,1.70
2018-07-11T01:30:35.089Z,2.10
2018-07-11T01:33:03.240Z,2.90
2018-07-11T01:35:31.101Z,1.60
2018-07-11T01:37:59.009Z,2.17
2018-07-11T01:40:26.904Z,2.33
2018-07-11T01:42:54.735Z,2.97
2018-07-11T01:45:22.675Z,1.90
2018-07-11T01:47:50.597Z,2.37
2018-07-11T01:50:18.433Z,1.80
2018-07-11T01:52:55.423Z,3.63
2018-07-11T01:55:23.335Z,2.30
2018-07-11T01:57:52.214Z,2.20
2018-07-11T02:00:20.183Z,3.00
2018-07-11T02:02:48.198Z,4.50
2018-07-11T02:05:16.203Z,2.20
2018-07-11T02:07:44.380Z,2.30
2018-07-11T02:10:12.323Z,2.57
2018-07-11T02:12:40.727Z,1.73
2018-07-11T02:15:08.959Z,1.90
2018-07-11T02:17:38.135Z,2.97
2018-07-11T02:20:08.141Z,4.70
2018-07-11T02:22:38.399Z,3.50
2018-07-11T02:25:06.315Z,2.90
2018-07-11T02:27:34.483Z,2.80
2018-07-11T02:30:03.133Z,2.77
2018-07-11T02:32:31.865Z,3.00
2018-07-11T02:34:59.813Z,2.77
2018-07-11T02:37:27.696Z,3.90
2018-07-11T02:39:56.562Z,3.63
2018-07-11T02:42:24.456Z,3.07
2018-07-11T02:44:52.556Z,5.77
2018-07-11T02:47:25.945Z,3.63
2018-07-11T02:49:53.735Z,4.50
2018-07-11T02:52:21.508Z,5.70
2018-07-11T02:54:49.325Z,3.40
2018-07-11T02:57:17.080Z,4.30
2018-07-11T02:59:44.860Z,3.90
2018-07-11T03:02:12.633Z,5.63
2018-07-11T03:04:40.755Z,4.77
2018-07-11T03:07:09.353Z,4.90
2018-07-11T03:09:37.153Z,3.80
2018-07-11T03:12:05.027Z,4.07
2018-07-11T03:14:34.182Z,7.43
2018-07-11T03:17:01.959Z,4.10
2018-07-11T03:19:29.754Z,5.70
2018-07-11T03:21:57.774Z,5.90
2018-07-11T03:24:25.629Z,7.07
2018-07-11T03:26:53.679Z,5.23
2018-07-11T03:29:21.472Z,5.20
2018-07-11T03:31:49.303Z,6.23
2018-07-11T03:34:17.067Z,7.97
2018-07-11T03:36:44.859Z,5.63
2018-07-11T03:39:12.696Z,7.10
2018-07-11T03:41:40.510Z,6.40
2018-07-11T03:44:08.383Z,7.27
2018-07-11T03:46:36.221Z,8.80
2018-07-11T03:49:04.021Z,7.30
2018-07-11T03:51:31.792Z,10.40
2018-07-11T03:53:59.608Z,6.17
2018-07-11T03:56:27.404Z,10.23
2018-07-11T03:58:55.216Z,8.47
2018-07-11T04:01:23.023Z,10.43
2018-07-11T04:03:50.919Z,9.13
2018-07-11T04:06:18.707Z,10.50
2018-07-11T04:08:46.528Z,9.03
2018-07-11T04:11:14.312Z,11.47
2018-07-11T04:13:42.067Z,9.73
2018-07-11T04:16:09.833Z,9.70
2018-07-11T04:18:37.627Z,7.90
2018-07-11T04:21:05.403Z,7.20
2018-07-11T04:23:33.203Z,12.87
2018-07-11T04:26:01.178Z,7.30
2018-07-11T04:28:29.496Z,7.47
2018-07-11T04:30:57.509Z,11.23
2018-07-11T04:33:25.399Z,8.43
2018-07-11T04:35:54.151Z,8.17
2018-07-11T04:38:22.047Z,8.53
2018-07-11T04:40:50.372Z,8.47
2018-07-11T04:43:18.744Z,7.07
2018-07-11T04:45:47.854Z,10.60
2018-07-11T04:48:17.467Z,8.00
2018-07-11T04:50:46.215Z,8.80
2018-07-11T04:53:19.926Z,8.63
2018-07-11T04:55:47.831Z,9.60
2018-07-11T04:58:15.568Z,9.90
2018-07-11T05:00:43.392Z,9.20
2018-07-11T05:03:11.219Z,10.20
2018-07-11T05:05:38.995Z,8.50
2018-07-11T05:08:06.772Z,9.60
2018-07-11T05:10:34.512Z,9.80
2018-07-11T05:13:02.291Z,12.20
2018-07-11T05:15:30.021Z,11.07
2018-07-11T05:17:57.749Z,14.17
2018-07-11T05:20:25.516Z,13.13
2018-07-11T05:22:53.283Z,12.33
2018-07-11T05:25:21.011Z,13.77
2018-07-11T05:27:48.792Z,13.50
2018-07-11T05:30:16.595Z,15.30
2018-07-11T05:32:44.392Z,14.40
2018-07-11T05:35:12.203Z,13.80
2018-07-11T05:37:39.897Z,11.30
2018-07-11T05:40:07.803Z,13.30
2018-07-11T05:42:35.591Z,11.03
2018-07-11T05:45:03.405Z,12.97
2018-07-11T05:47:31.159Z,14.33
2018-07-11T05:49:58.890Z,15.23
2018-07-11T05:52:26.691Z,14.07
2018-07-11T05:54:54.549Z,14.37
2018-07-11T05:57:22.263Z,17.33
2018-07-11T05:59:50.071Z,15.73
2018-07-11T06:02:17.804Z,13.30
2018-07-11T06:04:45.580Z,17.57
2018-07-11T06:07:13.352Z,17.17
2018-07-11T06:09:41.113Z,15.30
2018-07-11T06:12:08.900Z,15.60
2018-07-11T06:14:36.685Z,16.63
2018-07-11T06:17:04.444Z,14.30
2018-07-11T06:19:32.179Z,18.17
2018-07-11T06:21:59.824Z,13.07
2018-07-11T06:24:27.575Z,16.47
2018-07-11T06:26:55.336Z,17.23
2018-07-11T06:29:23.207Z,18.00
2018-07-11T06:31:51.023Z,18.70
2018-07-11T06:34:18.803Z,19.80
2018-07-11T06:36:46.588Z,22.80
2018-07-11T06:39:14.374Z,22.33
2018-07-11T06:41:42.148Z,18.87
2018-07-11T06:44:09.947Z,16.47
2018-07-11T06:46:39.015Z,16.80
2018-07-11T06:49:06.875Z,21.83
2018-07-11T06:51:34.654Z,18.07
2018-07-11T06:54:02.415Z,18.80
2018-07-11T06:56:30.175Z,20.67
2018-07-11T06:58:57.981Z,17.40
2018-07-11T07:01:25.733Z,19.80
2018-07-11T07:03:53.472Z,18.20
2018-07-11T07:06:21.263Z,13.77
2018-07-11T07:08:48.838Z,15.73
2018-07-11T07:11:16.544Z,19.00
2018-07-11T07:13:44.287Z,21.77
2018-07-11T07:16:12.007Z,17.10
2018-07-11T07:18:39.569Z,16.20
2018-07-11T07:21:07.173Z,16.97
2018-07-11T07:23:34.850Z,16.53
2018-07-11T07:26:02.662Z,15.70
2018-07-11T07:28:30.469Z,15.67
2018-07-11T07:30:58.246Z,22.80
2018-07-11T07:33:25.996Z,18.23
2018-07-11T07:35:53.780Z,15.57
2018-07-11T07:38:21.651Z,14.07
2018-07-11T07:40:49.420Z,14.93
2018-07-11T07:43:17.212Z,13.77
2018-07-11T07:45:45.713Z,16.43
2018-07-11T07:48:13.639Z,15.20
2018-07-11T07:50:41.523Z,16.73
2018-07-11T07:53:09.216Z,14.90
2018-07-11T07:55:37.183Z,15.90
2018-07-11T07:58:05.482Z,17.60
2018-07-11T08:00:33.290Z,17.47
2018-07-11T08:03:01.126Z,14.10
2018-07-11T08:05:28.959Z,14.57
2018-07-11T08:07:56.691Z,21.07
2018-07-11T08:10:24.371Z,16.63
2018-07-11T08:12:52.144Z,18.57
2018-07-11T08:15:19.891Z,21.03
2018-07-11T08:17:47.507Z,18.53
2018-07-11T08:20:15.272Z,15.50
2018-07-11T08:23:22.044Z,15.03
2018-07-11T08:26:01.975Z,13.60
2018-07-11T08:29:40.757Z,15.10
2018-07-11T08:32:19.863Z,13.80
2018-07-11T08:35:06.729Z,14.30
2018-07-11T08:38:17.471Z,13.20
2018-07-11T08:43:00.454Z,13.00
2018-07-11T08:46:43.916Z,14.57
2018-07-11T08:49:56.587Z,13.30
2018-07-11T08:52:38.232Z,12.67
2018-07-11T08:55:17.314Z,10.53
2018-07-11T08:57:53.288Z,12.53
2018-07-11T09:00:36.432Z,9.97
2018-07-11T09:03:15.355Z,10.13
2018-07-11T09:07:56.735Z,8.23
2018-07-11T09:10:35.598Z,11.93
2018-07-11T09:13:13.386Z,13.10
2018-07-11T09:15:52.387Z,11.60
2018-07-11T09:18:58.894Z,11.53
2018-07-11T09:21:42.124Z,6.20
2018-07-11T09:24:21.222Z,12.67
2018-07-11T09:26:48.888Z,6.73
2018-07-11T09:29:16.656Z,7.20
2018-07-11T09:31:44.515Z,7.40
2018-07-11T09:34:12.432Z,8.30
2018-07-11T09:36:40.191Z,6.70
2018-07-11T09:39:08.158Z,7.70
2018-07-11T09:41:35.971Z,9.57
2018-07-11T09:44:03.943Z,8.00
2018-07-11T09:46:31.869Z,5.67
2018-07-11T09:48:59.814Z,6.10
2018-07-11T09:51:27.630Z,6.80
2018-07-11T09:53:55.581Z,8.17
2018-07-11T09:56:23.477Z,5.47
2018-07-11T09:58:51.387Z,6.17
2018-07-11T10:01:26.016Z,7.67
2018-07-11T10:03:54.790Z,4.40
2018-07-11T10:06:23.219Z,6.40
2018-07-11T10:08:50.991Z,6.50
2018-07-11T10:11:18.599Z,6.10
2018-07-11T10:13:46.756Z,8.90
2018-07-11T10:16:14.929Z,7.30
2018-07-11T10:18:55.392Z,10.17
2018-07-11T10:21:23.233Z,8.90
2018-07-11T10:23:51.308Z,6.93
2018-07-11T10:26:19.079Z,6.37
2018-07-11T10:28:46.878Z,9.07
2018-07-11T10:31:15.970Z,6.77
2018-07-11T10:33:43.828Z,10.30
2018-07-11T10:36:11.612Z,8.13
2018-07-11T10:38:39.367Z,8.67
2018-07-11T10:41:07.148Z,8.33
2018-07-11T10:43:35.067Z,15.87
2018-07-11T10:46:02.839Z,7.60
2018-07-11T10:48:30.599Z,8.47
2018-07-11T10:50:58.459Z,7.83
2018-07-11T10:53:26.296Z,7.20
2018-07-11T10:55:54.496Z,7.17
2018-07-11T10:58:22.154Z,8.23
2018-07-11T11:01:05.029Z,6.33
2018-07-11T11:03:23.559Z,5.80
2018-07-11T11:05:51.713Z,7.80
2018-07-11T11:08:19.568Z,8.00
2018-07-11T11:10:47.347Z,5.30
2018-07-11T11:13:15.098Z,5.87
2018-07-11T11:15:42.758Z,5.03
2018-07-11T11:18:10.548Z,3.40
2018-07-11T11:20:38.261Z,3.60
2018-07-11T11:23:05.965Z,5.23
2018-07-11T11:25:33.805Z,4.17
2018-07-11T11:28:01.783Z,2.43
2018-07-11T11:30:29.525Z,4.87
2018-07-11T11:32:57.375Z,2.30
2018-07-11T11:35:25.023Z,2.63
2018-07-11T11:37:52.856Z,3.70
2018-07-11T11:40:20.650Z,2.73
2018-07-11T11:42:48.486Z,5.70
2018-07-11T11:45:16.107Z,7.40
2018-07-11T11:47:43.924Z,2.90
2018-07-11T11:50:11.673Z,1.90
2018-07-11T11:52:39.433Z,1.87
2018-07-11T11:55:07.267Z,2.90
2018-07-11T11:57:35.048Z,3.30
2018-07-11T12:00:02.743Z,4.80
2018-07-11T12:02:30.516Z,3.27
2018-07-11T12:04:58.259Z,2.10
2018-07-11T12:07:26.043Z,4.80
2018-07-11T12:09:53.839Z,2.50
2018-07-11T12:12:21.591Z,1.57
2018-07-11T12:14:49.324Z,2.13
2018-07-11T12:17:17.079Z,2.93
2018-07-11T12:19:45.663Z,2.33
2018-07-11T12:22:21.724Z,1.70
2018-07-11T12:24:49.703Z,2.47
2018-07-11T12:27:17.732Z,2.83
2018-07-11T12:29:45.688Z,1.57
2018-07-11T12:32:13.487Z,2.20
2018-07-11T12:34:41.307Z,1.87
2018-07-11T12:37:09.075Z,3.20
2018-07-11T12:39:37.360Z,3.23
2018-07-11T12:42:05.155Z,5.73
2018-07-11T12:44:33.012Z,1.50
2018-07-11T12:47:00.794Z,3.63
2018-07-11T12:49:28.700Z,3.40
2018-07-11T12:51:56.558Z,3.40
2018-07-11T12:54:24.394Z,2.97
2018-07-11T12:56:52.264Z,3.87
2018-07-11T12:59:20.956Z,3.00
2018-07-11T13:01:49.008Z,2.60
2018-07-11T13:04:16.847Z,3.33
2018-07-11T13:06:44.672Z,2.73
2018-07-11T13:09:12.296Z,6.47
2018-07-11T13:11:40.088Z,0.80
2018-07-11T13:14:07.904Z,6.73
2018-07-11T13:16:35.691Z,1.90
2018-07-11T13:19:03.510Z,1.60
2018-07-11T13:21:31.271Z,1.13
2018-07-11T13:23:59.036Z,3.23
2018-07-11T13:26:26.828Z,1.90
2018-07-11T13:28:54.633Z,2.10
2018-07-11T13:31:22.415Z,2.17
2018-07-11T13:33:50.240Z,1.37
2018-07-11T13:36:18.062Z,2.50
2018-07-11T13:38:45.811Z,4.73
2018-07-11T13:41:13.595Z,5.17
2018-07-11T13:43:41.363Z,4.30
2018-07-11T13:46:09.127Z,4.93
2018-07-11T13:48:36.842Z,3.03
2018-07-11T13:51:04.635Z,2.43
2018-07-11T13:53:32.292Z,3.37
2018-07-11T13:56:00.149Z,2.70
2018-07-11T13:58:27.980Z,1.83
2018-07-11T14:00:56.019Z,3.17
2018-07-11T14:03:23.763Z,5.77
2018-07-11T14:05:51.399Z,1.43
2018-07-11T14:08:19.159Z,3.50
2018-07-11T14:10:46.935Z,1.50
2018-07-11T14:13:15.299Z,3.53
2018-07-11T14:15:43.219Z,4.17
2018-07-11T14:18:11.007Z,2.90
2018-07-11T14:20:38.785Z,2.40
2018-07-11T14:23:08.442Z,3.03
2018-07-11T14:25:38.695Z,2.77
2018-07-11T14:28:06.504Z,3.87
2018-07-11T14:30:35.975Z,4.77
2018-07-11T14:33:05.243Z,3.97
2018-07-11T14:35:33.828Z,2.23
2018-07-11T14:38:01.655Z,3.50
2018-07-11T14:40:29.547Z,4.63
2018-07-11T14:42:57.520Z,2.90
2018-07-11T14:45:25.391Z,10.37
2018-07-11T14:47:58.819Z,2.20
2018-07-11T14:50:26.656Z,6.13
2018-07-11T14:52:54.515Z,3.93
2018-07-11T14:55:22.407Z,6.27
2018-07-11T14:57:50.309Z,5.40
2018-07-11T15:00:18.096Z,2.63
2018-07-11T15:02:45.848Z,5.43
2018-07-11T15:05:13.667Z,2.27
2018-07-11T15:07:41.507Z,4.53
2018-07-11T15:10:09.118Z,5.90
2018-07-11T15:12:36.944Z,3.80
2018-07-11T15:15:04.683Z,3.73
2018-07-11T15:17:32.903Z,5.10
2018-07-11T15:20:00.751Z,10.00
2018-07-11T15:22:28.394Z,9.07
2018-07-11T15:24:56.230Z,4.20
2018-07-11T15:27:24.447Z,8.60
2018-07-11T15:29:52.089Z,8.13
2018-07-11T15:32:20.267Z,10.03
2018-07-11T15:34:47.954Z,9.20
2018-07-11T15:37:15.539Z,11.33
2018-07-11T15:39:43.403Z,9.53
2018-07-11T15:42:11.196Z,8.90
2018-07-11T15:44:39.067Z,10.03
2018-07-11T15:47:07.535Z,5.43
2018-07-11T15:49:35.358Z,10.27
2018-07-11T15:52:03.007Z,6.80
2018-07-11T15:54:31.242Z,6.07
2018-07-11T15:56:59.403Z,7.10
2018-07-11T15:59:29.159Z,5.60
2018-07-11T16:01:57.388Z,7.63
2018-07-11T16:04:33.198Z,6.23
2018-07-11T16:07:01.427Z,5.87
2018-07-11T16:09:29.986Z,6.67
2018-07-11T16:11:57.788Z,6.30
2018-07-11T16:14:25.603Z,13.27
2018-07-11T16:16:53.240Z,7.40
2018-07-11T16:19:21.079Z,7.23
2018-07-11T16:21:48.894Z,8.83
2018-07-11T16:24:16.556Z,8.67
2018-07-11T16:26:44.380Z,9.93
2018-07-11T16:29:12.264Z,6.27
2018-07-11T16:31:40.096Z,6.37
2018-07-11T16:34:07.834Z,6.10
2018-07-11T16:36:35.657Z,6.50
2018-07-11T16:39:04.072Z,7.20
2018-07-11T16:41:31.899Z,8.17
2018-07-11T16:43:59.735Z,7.10
2018-07-11T16:46:27.407Z,5.50
2018-07-11T16:48:55.274Z,7.67
2018-07-11T16:51:23.170Z,9.17
2018-07-11T16:53:51.054Z,10.63
2018-07-11T16:56:18.699Z,9.37
2018-07-11T16:58:53.468Z,8.40
2018-07-11T17:01:24.908Z,8.17
2018-07-11T17:03:52.771Z,8.73
2018-07-11T17:06:20.640Z,5.50
2018-07-11T17:08:49.303Z,6.10
2018-07-11T17:11:18.885Z,8.63
2018-07-11T17:13:56.523Z,5.97
2018-07-11T17:16:43.360Z,7.07
2018-07-11T17:19:29.990Z,10.33
2018-07-11T17:21:59.631Z,7.63
2018-07-11T17:24:28.299Z,9.20
2018-07-11T17:26:57.586Z,11.93
2018-07-11T17:29:28.514Z,8.60
2018-07-11T17:32:03.605Z,7.93
2018-07-11T17:34:31.679Z,7.77
2018-07-11T17:37:01.210Z,6.37
2018-07-11T17:39:40.889Z,7.67
2018-07-11T17:42:08.893Z,5.07
2018-07-11T17:44:38.493Z,8.70
2018-07-11T17:47:06.399Z,8.23
2018-07-11T17:49:36.399Z,11.83
2018-07-11T17:52:09.917Z,4.53
2018-07-11T17:54:49.632Z,4.13
2018-07-11T17:57:23.355Z,6.63
2018-07-11T17:59:55.396Z,7.63
2018-07-11T18:02:31.081Z,6.97
2018-07-11T18:05:06.855Z,8.50
2018-07-11T18:07:52.360Z,4.60
2018-07-11T18:10:53.895Z,4.23
2018-07-11T18:13:36.693Z,11.10
2018-07-11T18:16:44.707Z,6.13
2018-07-11T18:21:28.475Z,6.70
2018-07-11T18:24:06.535Z,8.70
2018-07-11T18:28:45.378Z,7.27
2018-07-11T18:31:14.455Z,10.57
2018-07-11T18:34:48.455Z,9.80
2018-07-11T18:37:51.961Z,11.80
2018-07-11T18:40:39.483Z,10.77
2018-07-11T18:45:23.998Z,11.03
2018-07-11T18:49:34.299Z,11.27
2018-07-11T18:52:40.462Z,12.87
2018-07-11T18:55:19.455Z,11.60
2018-07-11T18:57:58.125Z,11.37
2018-07-11T19:00:38.644Z,15.03
2018-07-11T19:03:18.227Z,11.90
2018-07-11T19:05:59.006Z,13.03
2018-07-11T19:10:39.639Z,11.33
2018-07-11T19:13:29.554Z,12.23
2018-07-11T19:16:04.159Z,11.97
2018-07-11T19:19:10.014Z,9.87
2018-07-11T19:22:13.479Z,10.03
2018-07-11T19:24:56.257Z,11.63
2018-07-11T19:27:28.216Z,12.57
2018-07-11T19:30:08.380Z,13.00
2018-07-11T19:32:59.240Z,13.40
2018-07-11T19:36:39.773Z,13.70
2018-07-11T19:39:13.974Z,10.77
2018-07-11T19:42:52.244Z,11.13
2018-07-11T19:45:28.443Z,12.70
2018-07-11T19:51:11.000Z,15.23
2018-07-11T19:53:48.063Z,16.00
2018-07-11T19:56:27.532Z,24.27
2018-07-11T19:58:55.376Z,17.80
2018-07-11T20:01:23.187Z,16.43
2018-07-11T20:03:51.193Z,13.50
2018-07-11T20:06:19.753Z,12.27
2018-07-11T20:08:48.385Z,12.10
2018-07-11T20:11:16.123Z,16.10
2018-07-11T20:13:43.925Z,11.83
2018-07-11T20:16:11.767Z,13.03
2018-07-11T20:18:39.555Z,19.53
2018-07-11T20:21:07.395Z,11.80
2018-07-11T20:23:35.160Z,16.13
2018-07-11T20:26:03.167Z,16.03
2018-07-11T20:28:30.974Z,12.47
2018-07-11T20:30:58.791Z,13.00
2018-07-11T20:33:26.580Z,14.67
2018-07-11T20:35:54.300Z,18.40
2018-07-11T20:38:22.179Z,12.70
2018-07-11T20:40:50.060Z,17.53
2018-07-11T20:43:17.917Z,11.97
2018-07-11T20:45:45.723Z,14.60
2018-07-11T20:48:13.568Z,17.07
2018-07-11T20:50:41.324Z,15.20
2018-07-11T20:53:08.950Z,17.03
2018-07-11T20:55:36.728Z,12.10
2018-07-11T20:58:15.712Z,13.10
2018-07-11T21:00:55.013Z,20.70
2018-07-11T21:03:33.856Z,27.70
2018-07-11T21:06:23.839Z,18.13
2018-07-11T21:08:57.126Z,13.83
2018-07-11T21:12:33.454Z,21.90
2018-07-11T21:15:14.999Z,18.30
2018-07-11T21:17:53.734Z,22.50
2018-07-11T21:20:21.525Z,20.67
2018-07-11T21:22:50.626Z,18.60
2018-07-11T21:25:18.437Z,23.90
2018-07-11T21:27:46.583Z,19.53
2018-07-11T21:30:14.597Z,20.23
2018-07-11T21:32:43.194Z,20.50
2018-07-11T21:35:11.082Z,21.67
2018-07-11T21:37:38.895Z,19.60
2018-07-11T21:40:06.763Z,21.30
2018-07-11T21:42:34.515Z,20.60
2018-07-11T21:45:02.323Z,24.67
2018-07-11T21:47:30.119Z,19.73
2018-07-11T21:49:57.920Z,24.33
2018-07-11T21:52:26.079Z,22.57
2018-07-11T21:54:54.155Z,23.07
2018-07-11T21:57:22.203Z,27.43
2018-07-11T21:59:50.499Z,23.47
2018-07-11T22:02:18.351Z,27.20
2018-07-11T22:04:46.072Z,25.00
2018-07-11T22:07:13.998Z,25.10
2018-07-11T22:09:41.850Z,27.27
2018-07-11T22:12:10.147Z,20.57
2018-07-11T22:14:37.891Z,23.50
2018-07-11T22:17:16.868Z,22.37
2018-07-11T22:19:43.917Z,22.00
2018-07-11T22:22:10.939Z,19.33
2018-07-11T22:24:37.556Z,22.43
2018-07-11T22:27:04.119Z,23.30
2018-07-11T22:29:30.704Z,20.30
2018-07-11T22:31:57.857Z,22.97
2018-07-11T22:34:24.415Z,19.63
2018-07-11T22:36:51.011Z,18.60
2018-07-11T22:39:17.595Z,17.50
2018-07-11T22:41:44.162Z,17.20
2018-07-11T22:44:11.247Z,19.50
2018-07-11T22:46:37.862Z,17.37
2018-07-11T22:49:05.079Z,19.93
2018-07-11T22:51:31.638Z,19.30
2018-07-11T22:53:58.353Z,19.57
2018-07-11T22:56:24.928Z,17.03
2018-07-11T22:58:51.755Z,15.63
2018-07-11T23:01:18.385Z,17.77
2018-07-11T23:03:44.939Z,17.30
2018-07-11T23:06:12.008Z,20.43
2018-07-11T23:08:38.670Z,13.50
2018-07-11T23:11:05.459Z,15.03
2018-07-11T23:13:32.046Z,13.47
2018-07-11T23:15:59.184Z,13.10
2018-07-11T23:18:25.727Z,11.80
2018-07-11T23:20:52.486Z,14.67
2018-07-11T23:23:19.079Z,14.03
2018-07-11T23:25:45.650Z,12.00
2018-07-11T23:28:12.729Z,14.70
2018-07-11T23:30:39.331Z,21.50
2018-07-11T23:33:05.880Z,12.00
2018-07-11T23:35:32.443Z,12.63
2018-07-11T23:37:59.054Z,16.00
2018-07-11T23:40:25.607Z,14.30
2018-07-11T23:42:52.157Z,15.83
2018-07-11T23:45:18.742Z,12.60
2018-07-11T23:47:45.361Z,14.37
2018-07-11T23:50:11.936Z,13.33
2018-07-11T23:52:38.500Z,13.83
2018-07-11T23:55:05.108Z,13.63
2018-07-11T23:57:31.643Z,16.47
2018-07-11T23:59:58.235Z,17.77
